createdAt,value
2019-03-19T00:00:36.284Z,7.6
2019-03-19T00:01:37.668Z,7.6
2019-03-19T00:02:39.079Z,7.6
2019-03-19T00:03:40.510Z,7.7
2019-03-19T00:04:42.070Z,7.7
2019-03-19T00:05:43.630Z,7.7
2019-03-19T00:06:44.860Z,7.7
2019-03-19T00:07:46.416Z,7.8
2019-03-19T00:08:47.808Z,7.8
2019-03-19T00:09:49.361Z,7.9
2019-03-19T00:10:50.930Z,7.9
2019-03-19T00:11:52.505Z,7.9
2019-03-19T00:12:53.778Z,7.9
2019-03-19T00:13:55.354Z,7.9
2019-03-19T00:14:56.933Z,7.9
2019-03-19T00:15:58.380Z,7.9
2019-03-19T00:16:59.791Z,7.9
2019-03-19T00:18:01.341Z,7.9
2019-03-19T00:19:02.890Z,7.9
2019-03-19T00:20:04.295Z,7.9
2019-03-19T00:21:05.692Z,7.9
2019-03-19T00:22:07.078Z,7.9
2019-03-19T00:23:08.606Z,7.9
2019-03-19T00:24:10.159Z,7.9
2019-03-19T00:25:11.729Z,7.9
2019-03-19T00:26:13.140Z,7.9
2019-03-19T00:27:14.707Z,7.9
2019-03-19T00:28:16.128Z,7.9
2019-03-19T00:29:17.591Z,7.9
2019-03-19T00:30:19.149Z,7.8
2019-03-19T00:31:20.694Z,7.8
2019-03-19T00:32:22.252Z,7.9
2019-03-19T00:33:23.790Z,7.9
2019-03-19T00:34:25.571Z,7.9
2019-03-19T00:35:26.811Z,7.9
2019-03-19T00:36:28.350Z,7.9
2019-03-19T00:37:29.761Z,7.9
2019-03-19T00:38:31.004Z,7.9
2019-03-19T00:39:32.399Z,7.9
2019-03-19T00:40:33.968Z,7.8
2019-03-19T00:41:35.194Z,7.8
2019-03-19T00:42:36.734Z,7.8
2019-03-19T00:43:38.319Z,7.8
2019-03-19T00:44:39.730Z,7.8
2019-03-19T00:45:40.982Z,7.8
2019-03-19T00:46:42.547Z,7.8
2019-03-19T00:47:43.955Z,7.8
2019-03-19T00:48:45.520Z,7.8
2019-03-19T00:49:47.049Z,7.9
2019-03-19T00:50:48.436Z,7.9
2019-03-19T00:51:49.829Z,7.8
2019-03-19T00:52:51.382Z,7.8
2019-03-19T00:53:52.949Z,7.8
2019-03-19T00:54:54.182Z,7.9
2019-03-19T00:55:55.592Z,7.9
2019-03-19T00:56:57.176Z,7.9
2019-03-19T00:57:58.558Z,7.9
2019-03-19T00:59:00.094Z,7.9
2019-03-19T01:00:01.592Z,7.9
2019-03-19T01:01:03.152Z,7.9
2019-03-19T01:02:04.564Z,7.5
2019-03-19T01:03:05.991Z,7.5
2019-03-19T01:04:07.415Z,7.5
2019-03-19T01:05:08.981Z,7.5
2019-03-19T01:06:10.440Z,7.6
2019-03-19T01:07:11.845Z,7.6
2019-03-19T01:08:13.425Z,7.6
2019-03-19T01:09:14.817Z,7.6
2019-03-19T01:10:18.978Z,7.7
2019-03-19T01:11:20.372Z,7.7
2019-03-19T01:12:21.784Z,7.7
2019-03-19T01:13:23.036Z,7.7
2019-03-19T01:14:24.591Z,7.7
2019-03-19T01:15:25.838Z,7.7
2019-03-19T01:16:27.405Z,7.7
2019-03-19T01:17:28.805Z,7.7
2019-03-19T01:18:30.213Z,7.7
2019-03-19T01:19:31.457Z,7.7
2019-03-19T01:20:33.073Z,7.7
2019-03-19T01:21:34.634Z,7.7
2019-03-19T01:22:36.642Z,7.7
2019-03-19T01:23:38.030Z,7.7
2019-03-19T01:24:39.275Z,7.7
2019-03-19T01:25:57.423Z,7.7
2019-03-19T01:26:59.028Z,7.7
2019-03-19T01:28:00.431Z,7.7
2019-03-19T01:29:01.975Z,7.8
2019-03-19T01:30:03.399Z,7.8
2019-03-19T01:31:04.940Z,7.8
2019-03-19T01:32:06.338Z,7.8
2019-03-19T01:33:07.893Z,7.8
2019-03-19T01:34:09.432Z,7.8
2019-03-19T01:35:10.872Z,7.8
2019-03-19T01:36:12.278Z,7.9
2019-03-19T01:37:13.831Z,7.9
2019-03-19T01:38:15.250Z,7.9
2019-03-19T01:39:16.805Z,7.8
2019-03-19T01:40:18.377Z,7.8
2019-03-19T01:41:19.755Z,7.8
2019-03-19T01:42:21.305Z,7.8
2019-03-19T01:43:22.699Z,7.8
2019-03-19T01:44:24.073Z,7.8
2019-03-19T01:45:25.452Z,7.8
2019-03-19T01:46:26.844Z,7.8
2019-03-19T01:47:28.396Z,7.8
2019-03-19T01:48:29.787Z,7.9
2019-03-19T01:49:31.199Z,7.9
2019-03-19T01:50:32.601Z,7.8
2019-03-19T01:51:33.680Z,7.8
2019-03-19T01:52:35.115Z,7.8
2019-03-19T01:53:36.680Z,7.8
2019-03-19T01:54:38.244Z,7.8
2019-03-19T01:55:39.796Z,7.8
2019-03-19T01:56:41.350Z,7.8
2019-03-19T01:57:42.754Z,7.8
2019-03-19T01:58:44.163Z,7.8
2019-03-19T01:59:45.718Z,7.8
2019-03-19T02:00:47.273Z,7.8
2019-03-19T02:01:48.676Z,7.8
2019-03-19T02:02:50.072Z,7.8
2019-03-19T02:03:51.477Z,7.8
2019-03-19T02:04:53.029Z,7.8
2019-03-19T02:05:54.575Z,7.7
2019-03-19T02:06:56.118Z,7.7
2019-03-19T02:07:57.534Z,7.6
2019-03-19T02:08:59.085Z,7.5
2019-03-19T02:10:00.748Z,7.4
2019-03-19T02:11:01.995Z,7.3
2019-03-19T02:12:03.462Z,7.2
2019-03-19T02:13:04.882Z,7.2
2019-03-19T02:14:06.310Z,7.2
2019-03-19T02:15:07.746Z,7.2
2019-03-19T02:16:09.303Z,7.2
2019-03-19T02:17:13.556Z,7.2
2019-03-19T02:18:15.137Z,7.2
2019-03-19T02:19:16.382Z,7.1
2019-03-19T02:20:17.789Z,7.1
2019-03-19T02:21:19.172Z,7.1
2019-03-19T02:22:20.429Z,7.1
2019-03-19T02:23:22.019Z,7.1
2019-03-19T02:24:23.426Z,7.1
2019-03-19T02:25:24.734Z,7.1
2019-03-19T02:26:26.131Z,7.1
2019-03-19T02:27:27.697Z,7.1
2019-03-19T02:28:29.091Z,7.1
2019-03-19T02:29:30.469Z,7.1
2019-03-19T02:30:32.061Z,7.1
2019-03-19T02:31:33.481Z,7.1
2019-03-19T02:32:35.076Z,7.1
2019-03-19T02:33:36.553Z,7.1
2019-03-19T02:34:38.110Z,7.1
2019-03-19T02:35:39.714Z,7.1
2019-03-19T02:36:41.306Z,7.1
2019-03-19T02:37:42.607Z,7.1
2019-03-19T02:38:44.203Z,7.1
2019-03-19T02:39:45.675Z,7.1
2019-03-19T02:40:47.248Z,7.1
2019-03-19T02:41:48.854Z,7.1
2019-03-19T02:42:50.413Z,7.1
2019-03-19T02:43:51.873Z,7.1
2019-03-19T02:44:53.457Z,7.1
2019-03-19T02:45:55.077Z,7.1
2019-03-19T02:46:56.690Z,7.1
2019-03-19T02:47:58.000Z,7.1
2019-03-19T02:48:59.563Z,7.1
2019-03-19T02:50:01.267Z,7.1
2019-03-19T02:51:02.853Z,7.2
2019-03-19T02:52:04.400Z,7.2
2019-03-19T02:53:05.830Z,7.2
2019-03-19T02:54:07.287Z,7.2
2019-03-19T02:55:08.875Z,7.2
2019-03-19T02:56:10.307Z,7.2
2019-03-19T02:57:11.884Z,7.2
2019-03-19T02:58:13.526Z,7.2
2019-03-19T02:59:15.097Z,7.2
2019-03-19T03:00:16.854Z,7.2
2019-03-19T03:01:18.280Z,7.2
2019-03-19T03:02:19.935Z,7.2
2019-03-19T03:03:21.337Z,7.3
2019-03-19T03:04:22.977Z,7.3
2019-03-19T03:05:24.386Z,7.4
2019-03-19T03:06:25.782Z,7.4
2019-03-19T03:07:27.189Z,7.5
2019-03-19T03:08:28.593Z,7.6
2019-03-19T03:09:30.172Z,7.7
2019-03-19T03:10:31.575Z,7.7
2019-03-19T03:11:33.161Z,7.8
2019-03-19T03:12:34.718Z,7.8
2019-03-19T03:13:36.296Z,7.9
2019-03-19T03:14:37.861Z,7.9
2019-03-19T03:15:39.145Z,7.9
2019-03-19T03:16:40.452Z,7.9
2019-03-19T03:17:42.067Z,7.9
2019-03-19T03:18:43.486Z,7.9
2019-03-19T03:19:45.102Z,7.9
2019-03-19T03:20:46.505Z,7.9
2019-03-19T03:21:48.284Z,7.9
2019-03-19T03:22:49.875Z,7.9
2019-03-19T03:23:51.316Z,7.9
2019-03-19T03:24:52.883Z,7.8
2019-03-19T03:25:54.337Z,7.8
2019-03-19T03:26:55.906Z,7.8
2019-03-19T03:27:57.468Z,7.8
2019-03-19T03:28:58.925Z,7.8
2019-03-19T03:30:00.859Z,7.8
2019-03-19T03:31:02.501Z,7.8
2019-03-19T03:32:03.956Z,7.8
2019-03-19T03:33:05.669Z,7.8
2019-03-19T03:34:07.259Z,7.8
2019-03-19T03:35:09.063Z,7.8
2019-03-19T03:36:10.475Z,7.8
2019-03-19T03:37:12.085Z,7.8
2019-03-19T03:38:13.358Z,7.8
2019-03-19T03:39:14.759Z,7.8
2019-03-19T03:40:16.233Z,7.8
2019-03-19T03:41:17.666Z,7.8
2019-03-19T03:42:19.256Z,7.8
2019-03-19T03:43:20.705Z,7.8
2019-03-19T03:44:22.272Z,7.7
2019-03-19T03:45:23.845Z,7.7
2019-03-19T03:46:25.294Z,7.7
2019-03-19T03:47:26.860Z,7.7
2019-03-19T03:48:28.432Z,7.8
2019-03-19T03:49:30.002Z,7.8
2019-03-19T03:50:31.544Z,7.8
2019-03-19T03:51:33.033Z,7.8
2019-03-19T03:52:34.636Z,7.8
2019-03-19T03:53:36.128Z,7.8
2019-03-19T03:54:37.782Z,7.8
2019-03-19T03:55:39.369Z,7.8
2019-03-19T03:56:40.930Z,7.8
2019-03-19T03:57:42.593Z,7.8
2019-03-19T03:58:43.997Z,7.8
2019-03-19T03:59:45.379Z,7.8
2019-03-19T04:00:46.618Z,7.8
2019-03-19T04:01:48.252Z,7.8
2019-03-19T04:02:49.712Z,7.8
2019-03-19T04:03:51.306Z,7.8
2019-03-19T04:04:52.924Z,7.8
2019-03-19T04:05:54.316Z,7.8
2019-03-19T04:06:55.870Z,7.8
2019-03-19T04:07:57.462Z,7.8
2019-03-19T04:08:59.023Z,7.8
2019-03-19T04:10:00.806Z,7.8
2019-03-19T04:11:02.379Z,7.8
2019-03-19T04:12:04.026Z,7.8
2019-03-19T04:13:05.461Z,7.8
2019-03-19T04:14:07.021Z,7.9
2019-03-19T04:15:08.614Z,7.9
2019-03-19T04:16:10.193Z,7.9
2019-03-19T04:17:12.025Z,7.9
2019-03-19T04:18:13.450Z,7.9
2019-03-19T04:19:15.016Z,7.9
2019-03-19T04:20:16.420Z,7.2
2019-03-19T04:21:17.989Z,7.2
2019-03-19T04:22:19.585Z,7.2
2019-03-19T04:23:21.166Z,7.2
2019-03-19T04:24:22.599Z,7.2
2019-03-19T04:25:24.220Z,7.2
2019-03-19T04:26:25.615Z,7.2
2019-03-19T04:27:27.021Z,7.2
2019-03-19T04:28:28.596Z,7.2
2019-03-19T04:29:30.311Z,7.1
2019-03-19T04:30:31.947Z,7.1
2019-03-19T04:31:33.381Z,7.1
2019-03-19T04:32:34.973Z,7.1
2019-03-19T04:33:36.546Z,7.1
2019-03-19T04:34:37.950Z,7.1
2019-03-19T04:35:42.590Z,7.1
2019-03-19T04:36:44.023Z,7.2
2019-03-19T04:37:45.643Z,7.2
2019-03-19T04:38:47.223Z,7.2
2019-03-19T04:39:48.806Z,7.2
2019-03-19T04:40:51.340Z,7.2
2019-03-19T04:41:53.059Z,7.2
2019-03-19T04:42:54.334Z,7.2
2019-03-19T04:43:55.899Z,7.2
2019-03-19T04:44:57.325Z,7.3
2019-03-19T04:45:58.713Z,7.4
2019-03-19T04:47:00.286Z,7.5
2019-03-19T04:48:04.323Z,7.6
2019-03-19T04:49:05.869Z,7.7
2019-03-19T04:50:07.425Z,7.8
2019-03-19T04:51:08.999Z,7.9
2019-03-19T04:52:10.399Z,7.9
2019-03-19T04:53:11.632Z,7.9
2019-03-19T04:54:13.192Z,7.9
2019-03-19T04:55:14.739Z,7.9
2019-03-19T04:56:16.284Z,7.7
2019-03-19T04:57:28.386Z,7.8
2019-03-19T04:58:29.935Z,7.9
2019-03-19T04:59:31.489Z,7.9
2019-03-19T05:00:33.051Z,7.9
2019-03-19T05:01:34.612Z,7.9
2019-03-19T05:02:36.149Z,7.9
2019-03-19T05:03:37.766Z,7.9
2019-03-19T05:04:39.368Z,7.9
2019-03-19T05:05:40.753Z,7.9
2019-03-19T05:06:42.301Z,7.9
2019-03-19T05:07:43.698Z,7.9
2019-03-19T05:08:45.262Z,7.8
2019-03-19T05:09:46.653Z,7.8
2019-03-19T05:10:48.067Z,7.8
2019-03-19T05:11:49.629Z,7.8
2019-03-19T05:12:51.184Z,7.7
2019-03-19T05:13:52.742Z,7.7
2019-03-19T05:14:54.141Z,7.7
2019-03-19T05:15:55.673Z,7.7
2019-03-19T05:16:57.231Z,7.7
2019-03-19T05:17:58.806Z,7.7
2019-03-19T05:19:00.357Z,7.7
2019-03-19T05:20:01.824Z,7.7
2019-03-19T05:21:03.411Z,7.8
2019-03-19T05:22:04.661Z,7.8
2019-03-19T05:23:05.919Z,7.8
2019-03-19T05:24:07.500Z,7.8
2019-03-19T05:25:08.881Z,7.8
2019-03-19T05:26:10.445Z,7.7
2019-03-19T05:27:14.579Z,7.7
2019-03-19T05:28:15.981Z,7.7
2019-03-19T05:29:17.521Z,7.7
2019-03-19T05:30:19.084Z,7.7
2019-03-19T05:31:20.639Z,7.7
2019-03-19T05:32:22.027Z,7.7
2019-03-19T05:33:23.581Z,7.7
2019-03-19T05:34:25.197Z,7.7
2019-03-19T05:35:26.763Z,7.7
2019-03-19T05:36:28.169Z,7.6
2019-03-19T05:37:29.559Z,7.6
2019-03-19T05:38:31.130Z,7.5
2019-03-19T05:39:32.210Z,7.5
2019-03-19T05:40:33.780Z,7.5
2019-03-19T05:41:35.328Z,7.5
2019-03-19T05:42:36.570Z,7.5
2019-03-19T05:43:37.993Z,7.5
2019-03-19T05:44:39.512Z,7.5
2019-03-19T05:45:41.304Z,7.4
2019-03-19T05:46:42.535Z,7.4
2019-03-19T05:47:44.085Z,7.3
2019-03-19T05:48:45.486Z,7.3
2019-03-19T05:49:46.881Z,7.2
2019-03-19T05:50:48.430Z,7.2
2019-03-19T05:51:49.992Z,7.2
2019-03-19T05:52:51.407Z,7.2
2019-03-19T05:53:52.642Z,7.2
2019-03-19T05:54:54.208Z,7.2
2019-03-19T05:55:55.751Z,7.2
2019-03-19T05:56:57.204Z,7.2
2019-03-19T05:57:58.775Z,7.2
2019-03-19T05:59:00.331Z,7.2
2019-03-19T06:00:01.902Z,7.2
2019-03-19T06:01:03.169Z,7.2
2019-03-19T06:02:04.737Z,7.3
2019-03-19T06:03:06.128Z,7.3
2019-03-19T06:04:07.538Z,7.4
2019-03-19T06:05:08.929Z,7.5
2019-03-19T06:06:10.498Z,7.6
2019-03-19T06:07:12.050Z,7.7
2019-03-19T06:08:13.435Z,7.7
2019-03-19T06:09:14.815Z,7.7
2019-03-19T06:10:16.452Z,7.7
2019-03-19T06:11:17.847Z,7.7
2019-03-19T06:12:19.267Z,7.6
2019-03-19T06:13:20.815Z,7.6
2019-03-19T06:14:22.361Z,7.4
2019-03-19T06:15:23.920Z,7.3
2019-03-19T06:16:25.324Z,7.2
2019-03-19T06:17:26.859Z,7.2
2019-03-19T06:18:36.989Z,7.1
2019-03-19T06:19:38.245Z,7.2
2019-03-19T06:20:39.664Z,7.2
2019-03-19T06:21:41.204Z,7.2
2019-03-19T06:22:42.762Z,7.2
2019-03-19T06:23:44.227Z,7.2
2019-03-19T06:24:45.694Z,7.2
2019-03-19T06:25:47.097Z,7.2
2019-03-19T06:26:48.472Z,7.2
2019-03-19T06:28:02.186Z,7.2
2019-03-19T06:29:03.416Z,7.2
2019-03-19T06:30:04.979Z,7.2
2019-03-19T06:31:06.581Z,7.2
2019-03-19T06:32:08.130Z,7.2
2019-03-19T06:33:09.545Z,7.2
2019-03-19T06:34:10.775Z,7.3
2019-03-19T06:35:12.411Z,7.4
2019-03-19T06:36:14.010Z,7.4
2019-03-19T06:37:15.400Z,7.5
2019-03-19T06:38:16.948Z,7.7
2019-03-19T06:39:18.181Z,7.8
2019-03-19T06:40:19.425Z,7.9
2019-03-19T06:41:20.990Z,7.9
2019-03-19T06:42:22.379Z,7.9
2019-03-19T06:43:23.790Z,7.9
2019-03-19T06:44:25.392Z,7.9
2019-03-19T06:45:26.803Z,7.9
2019-03-19T06:46:28.330Z,7.9
2019-03-19T06:47:29.569Z,7.9
2019-03-19T06:48:30.953Z,7.9
2019-03-19T06:49:32.483Z,7.9
2019-03-19T06:50:46.076Z,7.9
2019-03-19T06:51:47.637Z,7.9
2019-03-19T06:52:49.212Z,7.9
2019-03-19T06:53:50.781Z,7.9
2019-03-19T06:54:52.335Z,7.9
2019-03-19T06:55:53.912Z,7.9
2019-03-19T06:56:55.312Z,7.9
2019-03-19T06:57:56.840Z,7.9
2019-03-19T06:58:58.077Z,7.9
2019-03-19T07:01:18.402Z,7.9
2019-03-19T07:02:19.968Z,7.9
2019-03-19T07:03:21.514Z,7.9
2019-03-19T07:04:22.746Z,7.9
2019-03-19T07:05:24.350Z,7.9
2019-03-19T07:06:26.462Z,7.9
2019-03-19T07:07:27.883Z,7.9
2019-03-19T07:08:29.428Z,7.9
2019-03-19T07:09:30.975Z,7.9
2019-03-19T07:10:32.512Z,7.9
2019-03-19T07:11:33.920Z,7.9
2019-03-19T07:12:35.163Z,7.9
2019-03-19T07:13:36.715Z,7.9
2019-03-19T07:14:38.283Z,7.9
2019-03-19T07:15:39.835Z,7.9
2019-03-19T07:16:41.225Z,7.9
2019-03-19T07:17:42.638Z,7.9
2019-03-19T07:18:44.048Z,7.9
2019-03-19T07:19:45.449Z,7.9
2019-03-19T07:20:47.012Z,7.8
2019-03-19T07:21:48.419Z,7.9
2019-03-19T07:22:49.668Z,7.9
2019-03-19T07:23:51.227Z,7.9
2019-03-19T07:24:52.676Z,7.9
2019-03-19T07:25:54.231Z,7.9
2019-03-19T07:26:55.837Z,7.9
2019-03-19T07:27:57.242Z,7.9
2019-03-19T07:28:58.793Z,7.9
2019-03-19T07:30:00.547Z,7.8
2019-03-19T07:31:01.792Z,7.8
2019-03-19T07:32:03.042Z,7.8
2019-03-19T07:33:04.597Z,7.8
2019-03-19T07:34:06.146Z,7.9
2019-03-19T07:35:07.715Z,7.9
2019-03-19T07:36:09.146Z,7.9
2019-03-19T07:37:10.710Z,7.9
2019-03-19T07:38:12.262Z,7.9
2019-03-19T07:39:13.841Z,7.9
2019-03-19T07:40:15.411Z,7.8
2019-03-19T07:41:19.175Z,7.8
2019-03-19T07:42:20.417Z,7.8
2019-03-19T07:43:21.827Z,7.7
2019-03-19T07:44:23.051Z,7.6
2019-03-19T07:45:24.607Z,7.4
2019-03-19T07:46:26.158Z,7.3
2019-03-19T07:47:27.715Z,7.2
2019-03-19T07:48:29.146Z,7.2
2019-03-19T07:49:30.713Z,7.1
2019-03-19T07:50:32.131Z,7.1
2019-03-19T07:51:33.510Z,7.1
2019-03-19T07:52:34.740Z,7.2
2019-03-19T07:53:36.322Z,7.2
2019-03-19T07:54:37.889Z,7.1
2019-03-19T07:55:39.438Z,7.1
2019-03-19T07:56:40.871Z,7.1
2019-03-19T07:57:42.417Z,7.1
2019-03-19T07:58:46.813Z,7.1
2019-03-19T07:59:48.370Z,7.1
2019-03-19T08:00:49.790Z,7.1
2019-03-19T08:02:06.035Z,7.1
2019-03-19T08:03:17.901Z,7.2
2019-03-19T08:04:19.429Z,7.2
2019-03-19T08:05:20.983Z,7.2
2019-03-19T08:06:22.541Z,7.2
2019-03-19T08:07:24.161Z,7.3
2019-03-19T08:08:25.460Z,7.3
2019-03-19T08:09:27.450Z,7.4
2019-03-19T08:10:29.070Z,7.5
2019-03-19T08:11:30.452Z,7.5
2019-03-19T08:12:34.569Z,7.6
2019-03-19T08:13:35.971Z,7.7
2019-03-19T08:14:37.597Z,7.8
2019-03-19T08:15:38.990Z,7.8
2019-03-19T08:16:40.379Z,7.8
2019-03-19T08:17:44.677Z,7.9
2019-03-19T08:18:45.970Z,7.9
2019-03-19T08:19:47.536Z,7.9
2019-03-19T08:20:48.949Z,7.9
2019-03-19T08:21:50.488Z,7.9
2019-03-19T08:22:51.882Z,7.9
2019-03-19T08:23:53.270Z,7.9
2019-03-19T08:24:54.854Z,7.9
2019-03-19T08:25:56.410Z,7.9
2019-03-19T08:26:57.986Z,7.9
2019-03-19T08:27:59.531Z,7.9
2019-03-19T08:29:00.923Z,7.9
2019-03-19T08:30:02.619Z,7.9
2019-03-19T08:31:04.262Z,7.9
2019-03-19T08:32:05.661Z,7.9
2019-03-19T08:33:07.217Z,7.8
2019-03-19T08:34:08.591Z,7.9
2019-03-19T08:35:10.035Z,7.9
2019-03-19T08:36:11.440Z,7.9
2019-03-19T08:37:12.991Z,7.9
2019-03-19T08:38:14.367Z,7.8
2019-03-19T08:39:15.790Z,7.8
2019-03-19T08:40:17.345Z,7.8
2019-03-19T08:41:18.888Z,7.8
2019-03-19T08:42:20.139Z,7.8
2019-03-19T08:43:21.955Z,7.8
2019-03-19T08:44:29.436Z,7.8
2019-03-19T08:45:30.826Z,7.8
2019-03-19T08:46:32.366Z,7.7
2019-03-19T08:47:33.624Z,7.7
2019-03-19T08:48:37.366Z,7.7
2019-03-19T08:49:38.889Z,7.7
2019-03-19T08:50:40.450Z,7.7
2019-03-19T08:51:42.021Z,7.7
2019-03-19T08:52:43.595Z,7.7
2019-03-19T08:53:45.004Z,7.7
2019-03-19T08:54:46.559Z,7.6
2019-03-19T08:55:48.101Z,7.6
2019-03-19T08:56:49.669Z,7.6
2019-03-19T08:57:51.270Z,7.6
2019-03-19T08:58:52.850Z,7.6
2019-03-19T08:59:54.269Z,7.7
2019-03-19T09:00:55.878Z,7.7
2019-03-19T09:01:57.459Z,7.8
2019-03-19T09:02:59.039Z,7.8
2019-03-19T09:04:00.602Z,7.9
2019-03-19T09:05:04.567Z,7.9
2019-03-19T09:06:05.830Z,7.9
2019-03-19T09:07:07.232Z,7.9
2019-03-19T09:08:08.627Z,7.9
2019-03-19T09:09:10.239Z,7.9
2019-03-19T09:10:11.801Z,7.2
2019-03-19T09:11:13.212Z,7.3
2019-03-19T09:12:14.750Z,7.5
2019-03-19T09:13:16.152Z,7.6
2019-03-19T09:14:17.700Z,7.8
2019-03-19T09:15:19.102Z,7.9
2019-03-19T09:16:20.537Z,7.9
2019-03-19T09:17:21.922Z,7.9
2019-03-19T09:18:23.463Z,7.9
2019-03-19T09:19:24.867Z,7.9
2019-03-19T09:20:26.276Z,7.8
2019-03-19T09:21:27.672Z,7.8
2019-03-19T09:22:31.090Z,7.7
2019-03-19T09:23:34.475Z,7.6
2019-03-19T09:24:35.866Z,7.6
2019-03-19T09:25:37.259Z,7.5
2019-03-19T09:26:38.837Z,7.4
2019-03-19T09:27:40.147Z,7.2
2019-03-19T09:28:41.553Z,7.1
2019-03-19T09:29:43.115Z,7.1
2019-03-19T09:30:44.737Z,7.1
2019-03-19T09:31:46.113Z,7.2
2019-03-19T09:32:47.673Z,7.2
2019-03-19T09:33:49.077Z,7.2
2019-03-19T09:34:50.487Z,7.2
2019-03-19T09:35:52.050Z,7.2
2019-03-19T09:36:59.085Z,7.2
2019-03-19T09:38:00.704Z,7.2
2019-03-19T09:39:02.114Z,7.2
2019-03-19T09:40:03.653Z,7.1
2019-03-19T09:41:05.214Z,7.2
2019-03-19T09:42:06.465Z,7.2
2019-03-19T09:43:08.007Z,7.2
2019-03-19T09:44:09.406Z,7.2
2019-03-19T09:45:10.957Z,7.2
2019-03-19T09:46:12.409Z,7.2
2019-03-19T09:47:13.993Z,7.2
2019-03-19T09:48:15.441Z,7.2
2019-03-19T09:49:16.989Z,7.2
2019-03-19T09:50:18.099Z,7.2
2019-03-19T09:51:19.732Z,7.2
2019-03-19T09:52:21.306Z,7.3
2019-03-19T09:53:22.727Z,7.3
2019-03-19T09:54:24.289Z,7.4
2019-03-19T09:55:25.858Z,7.4
2019-03-19T09:56:27.257Z,7.5
2019-03-19T09:57:28.646Z,7.5
2019-03-19T09:58:29.917Z,7.5
2019-03-19T09:59:31.143Z,7.6
2019-03-19T10:00:32.540Z,7.6
2019-03-19T10:01:34.080Z,7.7
2019-03-19T10:02:35.650Z,7.7
2019-03-19T10:03:36.882Z,7.8
2019-03-19T10:04:38.300Z,7.8
2019-03-19T10:05:39.701Z,7.9
2019-03-19T10:06:41.255Z,7.9
2019-03-19T10:07:42.821Z,7.7
2019-03-19T10:08:44.220Z,7.8
2019-03-19T10:09:45.821Z,7.9
2019-03-19T10:10:47.404Z,7.7
2019-03-19T10:11:48.703Z,7.8
2019-03-19T10:12:50.277Z,7.9
2019-03-19T10:13:51.512Z,7.9
2019-03-19T10:14:52.900Z,7.9
2019-03-19T10:15:54.283Z,7.8
2019-03-19T10:16:55.839Z,7.9
2019-03-19T10:17:57.412Z,7.9
2019-03-19T10:18:59.604Z,7.9
2019-03-19T10:20:01.196Z,7.9
2019-03-19T10:21:02.596Z,7.9
2019-03-19T10:22:04.141Z,7.9
2019-03-19T10:23:05.544Z,7.9
2019-03-19T10:24:06.786Z,7.9
2019-03-19T10:25:08.357Z,7.9
2019-03-19T10:26:09.765Z,7.9
2019-03-19T10:27:11.313Z,7.9
2019-03-19T10:28:12.858Z,7.9
2019-03-19T10:29:14.260Z,7.9
2019-03-19T10:30:15.802Z,7.9
2019-03-19T10:31:17.026Z,7.9
2019-03-19T10:32:18.438Z,7.9
2019-03-19T10:33:20.010Z,7.8
2019-03-19T10:34:21.402Z,7.8
2019-03-19T10:35:22.971Z,7.8
2019-03-19T10:36:24.361Z,7.8
2019-03-19T10:37:25.943Z,7.7
2019-03-19T10:38:27.503Z,7.7
2019-03-19T10:39:29.070Z,7.7
2019-03-19T10:40:30.630Z,7.6
2019-03-19T10:41:32.196Z,7.6
2019-03-19T10:42:33.592Z,7.6
2019-03-19T10:43:35.163Z,7.6
2019-03-19T10:44:36.386Z,7.6
2019-03-19T10:45:37.770Z,7.5
2019-03-19T10:46:39.169Z,7.5
2019-03-19T10:47:40.550Z,7.4
2019-03-19T10:48:41.988Z,7.4
2019-03-19T10:49:43.243Z,7.3
2019-03-19T10:50:44.820Z,7.3
2019-03-19T10:51:46.270Z,7.3
2019-03-19T10:52:47.886Z,7.3
2019-03-19T10:53:49.347Z,7.3
2019-03-19T10:54:50.919Z,7.4
2019-03-19T10:55:52.466Z,7.5
2019-03-19T10:56:53.866Z,7.6
2019-03-19T10:57:55.423Z,7.8
2019-03-19T10:58:56.821Z,7.9
2019-03-19T10:59:58.242Z,7.9
2019-03-19T11:00:59.789Z,7.9
2019-03-19T11:02:01.198Z,7.9
2019-03-19T11:03:02.617Z,7.8
2019-03-19T11:04:04.189Z,7.8
2019-03-19T11:05:05.745Z,7.7
2019-03-19T11:06:07.276Z,7.6
2019-03-19T11:07:08.842Z,7.5
2019-03-19T11:08:10.262Z,7.3
2019-03-19T11:09:11.817Z,7.2
2019-03-19T11:10:13.394Z,7.1
2019-03-19T11:11:14.963Z,7.1
2019-03-19T11:12:16.522Z,7.2
2019-03-19T11:13:17.921Z,7.1
2019-03-19T11:14:19.331Z,7.1
2019-03-19T11:15:20.896Z,7.1
2019-03-19T11:16:22.288Z,7.1
2019-03-19T11:17:23.832Z,7.1
2019-03-19T11:18:25.386Z,7.1
2019-03-19T11:19:26.792Z,7.1
2019-03-19T11:20:28.209Z,7.1
2019-03-19T11:21:29.590Z,7.2
2019-03-19T11:22:33.789Z,7.1
2019-03-19T11:23:35.374Z,7.1
2019-03-19T11:24:36.790Z,7.1
2019-03-19T11:25:38.038Z,7.1
2019-03-19T11:26:39.582Z,7.2
2019-03-19T11:27:41.134Z,7.2
2019-03-19T11:28:42.690Z,7.2
2019-03-19T11:29:44.248Z,7.2
2019-03-19T11:30:45.736Z,7.2
2019-03-19T11:31:46.970Z,7.2
2019-03-19T11:32:48.586Z,7.2
2019-03-19T11:33:50.013Z,7.2
2019-03-19T11:34:51.408Z,7.3
2019-03-19T11:35:52.818Z,7.4
2019-03-19T11:36:59.478Z,7.5
2019-03-19T11:38:00.548Z,7.7
2019-03-19T11:39:02.336Z,7.7
2019-03-19T11:40:03.891Z,7.8
2019-03-19T11:41:07.830Z,7.8
2019-03-19T11:42:09.370Z,7.9
2019-03-19T11:43:10.791Z,7.8
2019-03-19T11:44:12.196Z,7.9
2019-03-19T11:45:13.747Z,7.8
2019-03-19T11:46:15.164Z,7.9
2019-03-19T11:47:16.714Z,7.9
2019-03-19T11:48:18.290Z,7.9
2019-03-19T11:49:20.031Z,7.9
2019-03-19T11:50:21.270Z,7.9
2019-03-19T11:51:22.689Z,7.9
2019-03-19T11:52:24.249Z,7.9
2019-03-19T11:53:25.491Z,7.9
2019-03-19T11:54:27.065Z,7.9
2019-03-19T11:55:28.488Z,7.9
2019-03-19T11:56:29.884Z,7.9
2019-03-19T11:57:31.429Z,7.9
2019-03-19T11:58:32.824Z,7.9
2019-03-19T11:59:34.242Z,7.7
2019-03-19T12:00:35.638Z,7.9
2019-03-19T12:01:37.235Z,7.9
2019-03-19T12:02:38.781Z,7.9
2019-03-19T12:03:40.042Z,7.9
2019-03-19T12:04:41.449Z,7.9
2019-03-19T12:05:42.737Z,7.8
2019-03-19T12:06:44.313Z,7.9
2019-03-19T12:07:45.880Z,7.7
2019-03-19T12:08:47.432Z,7.8
2019-03-19T12:09:48.977Z,7.9
2019-03-19T12:10:50.381Z,7.9
2019-03-19T12:11:51.768Z,7.2
2019-03-19T12:12:53.322Z,7.3
2019-03-19T12:13:54.892Z,7.4
2019-03-19T12:14:56.160Z,7.4
2019-03-19T12:15:57.717Z,7.5
2019-03-19T12:16:59.126Z,7.7
2019-03-19T12:18:00.693Z,7.8
2019-03-19T12:19:02.080Z,7.9
2019-03-19T12:20:03.663Z,7.9
2019-03-19T12:21:05.252Z,7.9
2019-03-19T12:22:06.790Z,7.9
2019-03-19T12:23:08.190Z,7.9
2019-03-19T12:24:09.735Z,7.9
2019-03-19T12:25:11.122Z,7.8
2019-03-19T12:26:12.688Z,7.9
2019-03-19T12:27:14.264Z,7.9
2019-03-19T12:28:15.655Z,7.9
2019-03-19T12:29:17.240Z,7.9
2019-03-19T12:30:27.606Z,7.6
2019-03-19T12:31:29.160Z,7.7
2019-03-19T12:32:30.727Z,7.8
2019-03-19T12:33:42.759Z,7.9
2019-03-19T12:34:44.318Z,7.9
2019-03-19T12:35:45.613Z,7.9
2019-03-19T12:36:47.178Z,7.9
2019-03-19T12:37:48.602Z,7.9
2019-03-19T12:38:50.010Z,7.9
2019-03-19T12:39:51.556Z,7.9
2019-03-19T12:40:52.811Z,7.9
2019-03-19T12:41:54.217Z,7.9
2019-03-19T12:42:55.766Z,7.8
2019-03-19T12:43:57.529Z,7.8
2019-03-19T12:44:59.084Z,7.8
2019-03-19T12:46:00.682Z,7.8
2019-03-19T12:47:02.245Z,7.8
2019-03-19T12:48:03.674Z,7.7
2019-03-19T12:49:05.179Z,7.6
2019-03-19T12:50:06.737Z,7.4
2019-03-19T12:51:08.310Z,7.3
2019-03-19T12:52:09.723Z,7.1
2019-03-19T12:53:11.306Z,7.1
2019-03-19T12:54:12.710Z,7.1
2019-03-19T12:55:14.334Z,7.1
2019-03-19T12:56:15.753Z,7.1
2019-03-19T12:57:17.136Z,7.2
2019-03-19T12:58:18.536Z,7.1
2019-03-19T12:59:21.920Z,7.1
2019-03-19T13:00:36.136Z,7.1
2019-03-19T13:01:38.647Z,7.2
2019-03-19T13:02:40.332Z,7.1
2019-03-19T13:03:41.723Z,7.1
2019-03-19T13:04:43.287Z,7.2
2019-03-19T13:05:44.863Z,7.2
2019-03-19T13:06:46.420Z,7.2
2019-03-19T13:07:47.831Z,7.2
2019-03-19T13:08:49.076Z,7.2
2019-03-19T13:09:50.633Z,7.2
2019-03-19T13:10:52.020Z,7.2
2019-03-19T13:11:53.418Z,7.2
2019-03-19T13:12:55.191Z,7.2
2019-03-19T13:13:56.742Z,7.2
2019-03-19T13:14:58.298Z,7.1
2019-03-19T13:15:59.852Z,7.2
2019-03-19T13:17:01.433Z,7.2
2019-03-19T13:18:03.013Z,7.2
2019-03-19T13:19:07.234Z,7.2
2019-03-19T13:20:08.642Z,7.2
2019-03-19T13:21:10.182Z,7.2
2019-03-19T13:22:13.936Z,7.2
2019-03-19T13:23:15.476Z,7.2
2019-03-19T13:24:18.779Z,7.3
2019-03-19T13:25:20.564Z,7.3
2019-03-19T13:26:21.831Z,7.3
2019-03-19T13:27:23.216Z,7.3
2019-03-19T13:28:24.771Z,7.3
2019-03-19T13:29:26.194Z,7.3
2019-03-19T13:30:27.606Z,7.4
2019-03-19T13:31:29.190Z,7.4
2019-03-19T13:32:30.737Z,7.4
2019-03-19T13:33:32.142Z,7.4
2019-03-19T13:34:33.714Z,7.4
2019-03-19T13:35:35.119Z,7.5
2019-03-19T13:36:36.543Z,7.5
2019-03-19T13:37:37.969Z,7.5
2019-03-19T13:38:39.402Z,7.6
2019-03-19T13:39:40.681Z,7.7
2019-03-19T13:40:42.088Z,7.9
2019-03-19T13:41:43.662Z,7.9
2019-03-19T13:42:45.210Z,7.9
2019-03-19T13:43:46.789Z,7.9
2019-03-19T13:44:48.350Z,7.7
2019-03-19T13:45:49.760Z,7.9
2019-03-19T13:46:51.316Z,7.9
2019-03-19T13:47:52.939Z,7.9
2019-03-19T13:48:54.504Z,7.4
2019-03-19T13:49:55.788Z,7.5
2019-03-19T13:50:57.330Z,7.7
2019-03-19T13:51:58.884Z,7.8
2019-03-19T13:53:00.463Z,7.9
2019-03-19T13:54:01.855Z,7.9
2019-03-19T13:55:03.422Z,7.9
2019-03-19T13:56:04.806Z,7.9
2019-03-19T13:57:06.209Z,7.9
2019-03-19T13:58:07.605Z,7.9
2019-03-19T13:59:08.993Z,7.9
2019-03-19T14:00:10.392Z,7.9
2019-03-19T14:01:11.941Z,7.9
2019-03-19T14:02:13.350Z,7.9
2019-03-19T14:03:14.922Z,7.9
2019-03-19T14:04:16.484Z,7.9
2019-03-19T14:05:17.748Z,7.9
2019-03-19T14:06:19.310Z,7.9
2019-03-19T14:07:20.871Z,7.2
2019-03-19T14:08:22.449Z,7.2
2019-03-19T14:09:23.713Z,7.2
2019-03-19T14:10:25.111Z,7.2
2019-03-19T14:11:26.694Z,7.2